Time;durP1;ratioP1;P1;durP2;ratioP2;P2;SDS_P1;SDS_P2;PMS_P1;PMS_P2;Temp;Humidity;BMP_temperature;BMP_pressure;BME280_temperature;BME280_humidity;BME280_pressure;Samples;Min_cycle;Max_cycle;Signal;HPM_P1;HPM_P2
2022/10/10 00:00:49;;;;;;;6.72;4.38;;;8.60;99.90;;;;;;5024817;28;20080;-77
2022/10/10 00:03:16;;;;;;;4.68;3.47;;;8.60;99.90;;;;;;5024270;28;20393;-77
2022/10/10 00:05:41;;;;;;;6.93;3.40;;;8.60;99.90;;;;;;5024629;28;20091;-77
2022/10/10 00:08:07;;;;;;;5.38;3.25;;;8.50;99.90;;;;;;5024254;28;20136;-76
2022/10/10 00:10:33;;;;;;;2.92;2.53;;;8.50;99.90;;;;;;5022932;28;20042;-77
2022/10/10 00:12:59;;;;;;;4.18;3.08;;;8.50;99.90;;;;;;4987958;28;20071;-76
2022/10/10 00:15:25;;;;;;;5.00;4.50;;;8.50;99.90;;;;;;5004344;28;20042;-76
2022/10/10 00:17:50;;;;;;;4.88;3.53;;;8.50;99.90;;;;;;5004735;28;20053;-77
2022/10/10 00:20:18;;;;;;;5.50;3.17;;;8.50;99.90;;;;;;5004417;28;20036;-77
2022/10/10 00:22:43;;;;;;;4.45;3.63;;;8.40;99.90;;;;;;5003181;28;20056;-76
2022/10/10 00:25:10;;;;;;;5.65;3.65;;;8.40;99.90;;;;;;5012728;28;20041;-76
2022/10/10 00:27:36;;;;;;;4.30;3.90;;;8.40;99.90;;;;;;5023882;28;20044;-76
2022/10/10 00:30:04;;;;;;;3.88;3.35;;;8.40;99.90;;;;;;5024440;28;20041;-76
2022/10/10 00:32:30;;;;;;;4.82;2.80;;;8.40;99.90;;;;;;5024200;28;20598;-76
2022/10/10 00:34:55;;;;;;;4.68;3.97;;;8.40;99.90;;;;;;5006095;28;20049;-77
2022/10/10 00:37:21;;;;;;;4.47;3.42;;;8.40;99.90;;;;;;5015837;28;20042;-76
2022/10/10 00:39:46;;;;;;;5.05;3.40;;;8.40;99.90;;;;;;5002684;28;20038;-77
2022/10/10 00:42:14;;;;;;;7.28;4.25;;;8.40;99.90;;;;;;5004514;28;20448;-76
2022/10/10 00:44:42;;;;;;;5.47;3.90;;;8.40;99.90;;;;;;5004013;28;20128;-77
2022/10/10 00:47:07;;;;;;;6.78;3.75;;;8.40;99.90;;;;;;5004204;28;20547;-76
2022/10/10 00:49:36;;;;;;;5.20;3.78;;;8.40;99.90;;;;;;5003697;28;20046;-76
2022/10/10 00:52:02;;;;;;;6.80;4.13;;;8.30;99.90;;;;;;5004149;28;20096;-76
2022/10/10 00:54:32;;;;;;;3.78;3.20;;;8.30;99.90;;;;;;5002769;28;20045;-76
2022/10/10 00:57:11;;;;;;;3.38;3.08;;;8.30;99.90;;;;;;4986753;28;20057;-76
2022/10/10 00:59:39;;;;;;;8.98;3.45;;;8.30;99.90;;;;;;5003468;28;20544;-76
2022/10/10 01:02:05;;;;;;;3.20;2.90;;;8.30;99.90;;;;;;5004335;28;20056;-76
2022/10/10 01:04:39;;;;;;;4.20;3.83;;;8.30;99.90;;;;;;5003567;28;20076;-77
2022/10/10 01:07:11;;;;;;;5.45;4.13;;;8.30;99.90;;;;;;5009335;28;20038;-76
2022/10/10 01:09:39;;;;;;;4.53;3.80;;;8.30;99.90;;;;;;5001139;28;20064;-77
2022/10/10 01:12:16;;;;;;;5.15;3.75;;;8.30;99.90;;;;;;5004077;28;20034;-77
2022/10/10 01:15:17;;;;;;;3.60;3.05;;;8.30;99.90;;;;;;5074315;22;20065;-76
2022/10/10 01:18:16;;;;;;;5.97;3.25;;;8.30;99.90;;;;;;5015063;28;20057;-76
2022/10/10 01:21:00;;;;;;;4.47;3.95;;;8.30;99.90;;;;;;5023319;28;20049;-77
2022/10/10 01:24:01;;;;;;;2.97;2.55;;;8.30;99.90;;;;;;5022207;28;20046;-77
2022/10/10 01:26:46;;;;;;;6.65;4.15;;;8.30;99.90;;;;;;4982141;28;20193;-76
2022/10/10 01:29:15;;;;;;;9.55;4.30;;;8.30;99.90;;;;;;4984423;28;20166;-76
2022/10/10 01:31:44;;;;;;;4.32;3.53;;;8.30;99.90;;;;;;4984128;28;20034;-76
2022/10/10 01:34:31;;;;;;;15.00;4.93;;;8.30;99.90;;;;;;5014707;28;20068;-76
2022/10/10 01:37:17;;;;;;;4.70;3.53;;;8.30;99.90;;;;;;5023665;28;20079;-77
2022/10/10 01:40:33;;;;;;;4.15;3.63;;;8.30;99.90;;;;;;5007251;28;20053;-76
2022/10/10 01:43:03;;;;;;;5.88;3.58;;;8.30;99.90;;;;;;4986918;28;20054;-75
2022/10/10 01:45:30;;;;;;;3.25;2.95;;;8.30;99.90;;;;;;5019195;28;20045;-77
2022/10/10 01:48:00;;;;;;;9.15;5.57;;;8.30;99.90;;;;;;5002379;28;20046;-76
2022/10/10 01:50:26;;;;;;;7.45;4.22;;;8.30;99.90;;;;;;5003627;28;20128;-77
2022/10/10 01:53:00;;;;;;;7.93;6.38;;;8.20;99.90;;;;;;5002091;28;20046;-77
2022/10/10 01:55:44;;;;;;;4.60;3.80;;;8.30;99.90;;;;;;5002675;28;20038;-77
2022/10/10 01:58:31;;;;;;;7.45;6.05;;;8.30;99.90;;;;;;5003861;28;20038;-77
2022/10/10 02:01:23;;;;;;;5.18;3.35;;;8.30;99.90;;;;;;5014423;28;20041;-77
2022/10/10 02:03:56;;;;;;;8.48;4.97;;;8.20;99.90;;;;;;5021416;28;20050;-76
2022/10/10 02:06:35;;;;;;;3.70;3.25;;;8.20;99.90;;;;;;5026363;28;20659;-76
2022/10/10 02:09:07;;;;;;;3.72;3.30;;;8.20;99.90;;;;;;5026607;28;20076;-76
2022/10/10 02:11:37;;;;;;;6.63;3.47;;;8.20;99.90;;;;;;5026709;28;20542;-76
2022/10/10 02:14:23;;;;;;;7.15;5.03;;;8.20;99.90;;;;;;5026749;28;20046;-77
2022/10/10 02:16:53;;;;;;;4.10;3.75;;;8.30;99.90;;;;;;5046676;28;20055;-76
2022/10/10 02:19:21;;;;;;;5.88;4.88;;;8.20;99.90;;;;;;5028721;28;20037;-76
2022/10/10 02:21:48;;;;;;;7.38;3.25;;;8.20;99.90;;;;;;5046595;28;20406;-76
2022/10/10 02:24:14;;;;;;;6.07;3.85;;;8.20;99.90;;;;;;5025586;28;20509;-76
2022/10/10 02:26:44;;;;;;;25.23;5.07;;;8.30;99.90;;;;;;5026784;28;20033;-76
2022/10/10 02:29:15;;;;;;;5.03;3.90;;;8.20;99.90;;;;;;5026938;28;20057;-76
2022/10/10 02:32:01;;;;;;;9.60;4.47;;;8.20;99.90;;;;;;5026386;28;20046;-76
2022/10/10 02:34:34;;;;;;;4.88;3.80;;;8.20;99.90;;;;;;5026949;28;20539;-76
2022/10/10 02:37:04;;;;;;;5.15;4.22;;;8.20;99.90;;;;;;5027211;28;20049;-76
2022/10/10 02:39:36;;;;;;;4.88;4.38;;;8.20;99.90;;;;;;5025405;28;20535;-77
2022/10/10 02:42:04;;;;;;;4.07;3.50;;;8.20;99.90;;;;;;5009223;28;20077;-76
2022/10/10 02:44:31;;;;;;;6.28;4.28;;;8.20;99.90;;;;;;5026587;28;20071;-76
2022/10/10 02:46:57;;;;;;;5.13;4.30;;;8.20;99.90;;;;;;5008769;28;20110;-76
2022/10/10 02:49:26;;;;;;;7.50;4.85;;;8.20;99.90;;;;;;5026546;28;20060;-76
2022/10/10 02:51:52;;;;;;;6.10;4.53;;;8.20;99.90;;;;;;5025778;28;20179;-76
2022/10/10 02:54:17;;;;;;;5.57;4.55;;;8.20;99.90;;;;;;5025384;28;20120;-77
2022/10/10 02:56:43;;;;;;;5.72;5.10;;;8.20;99.90;;;;;;5025814;28;20184;-77
2022/10/10 02:59:08;;;;;;;4.10;3.67;;;8.20;99.90;;;;;;5015759;28;20084;-77
2022/10/10 03:01:34;;;;;;;7.72;4.05;;;8.20;99.90;;;;;;5045701;28;20127;-77
2022/10/10 03:04:00;;;;;;;6.60;4.38;;;8.20;99.90;;;;;;5028313;28;20044;-76
2022/10/10 03:06:26;;;;;;;4.75;4.03;;;8.20;99.90;;;;;;5027795;28;20045;-77
2022/10/10 03:08:51;;;;;;;5.88;4.45;;;8.20;99.90;;;;;;5044755;28;20041;-76
2022/10/10 03:11:17;;;;;;;5.57;3.90;;;8.10;99.90;;;;;;5045631;28;20043;-76
2022/10/10 03:13:42;;;;;;;6.13;4.80;;;8.10;99.90;;;;;;5043303;28;20138;-76
2022/10/10 03:16:08;;;;;;;10.48;5.85;;;8.10;99.90;;;;;;5024594;28;20068;-77
2022/10/10 03:18:34;;;;;;;4.65;3.15;;;8.10;99.90;;;;;;5025248;28;20099;-76
2022/10/10 03:20:59;;;;;;;4.82;4.20;;;8.10;99.90;;;;;;5026401;28;20041;-77
2022/10/10 03:23:25;;;;;;;3.88;3.40;;;8.10;99.90;;;;;;5025429;28;20487;-76
2022/10/10 03:25:51;;;;;;;4.93;4.25;;;8.10;99.90;;;;;;5024589;28;20088;-76
2022/10/10 03:28:17;;;;;;;7.05;4.03;;;8.10;99.90;;;;;;5026116;28;20045;-76
2022/10/10 03:30:42;;;;;;;5.72;3.80;;;8.10;99.90;;;;;;5024876;28;20048;-76
2022/10/10 03:33:08;;;;;;;7.68;4.03;;;8.00;99.90;;;;;;5008084;28;20052;-76
2022/10/10 03:35:35;;;;;;;5.95;4.35;;;8.00;99.90;;;;;;5024867;28;20042;-75
2022/10/10 03:38:00;;;;;;;3.55;3.25;;;8.00;99.90;;;;;;5038348;28;20037;-76
2022/10/10 03:40:27;;;;;;;7.97;4.25;;;8.00;99.90;;;;;;5044698;28;20376;-76
2022/10/10 03:42:53;;;;;;;6.43;4.45;;;8.00;99.90;;;;;;5044312;28;20041;-76
2022/10/10 03:45:18;;;;;;;8.20;4.78;;;8.00;99.90;;;;;;5045277;28;20052;-76
2022/10/10 03:47:44;;;;;;;3.90;3.10;;;8.00;99.90;;;;;;5044791;28;20037;-76
2022/10/10 03:50:09;;;;;;;4.82;3.90;;;7.90;99.90;;;;;;5043453;28;20049;-76
2022/10/10 03:52:35;;;;;;;4.80;4.25;;;7.90;99.90;;;;;;5044945;28;20040;-76
2022/10/10 03:55:00;;;;;;;5.18;3.92;;;7.90;99.90;;;;;;5044231;28;20048;-76
2022/10/10 03:57:26;;;;;;;4.18;3.78;;;7.90;99.90;;;;;;5027166;28;20055;-76
2022/10/10 03:59:52;;;;;;;6.78;4.68;;;7.90;99.90;;;;;;5030099;28;20060;-76
2022/10/10 04:02:17;;;;;;;4.88;3.80;;;7.90;99.90;;;;;;5024543;28;20081;-76
2022/10/10 04:04:43;;;;;;;6.70;3.83;;;7.80;99.90;;;;;;5025072;28;20038;-77
2022/10/10 04:07:08;;;;;;;6.47;4.53;;;7.80;99.90;;;;;;5026897;28;20528;-76
2022/10/10 04:09:34;;;;;;;4.70;3.13;;;7.80;99.90;;;;;;5043258;28;20123;-76
2022/10/10 04:12:00;;;;;;;4.78;4.30;;;7.70;99.90;;;;;;5010892;28;20041;-76
2022/10/10 04:14:26;;;;;;;5.47;4.32;;;7.70;99.90;;;;;;5043981;28;20148;-76
2022/10/10 04:16:51;;;;;;;6.57;4.63;;;7.70;99.90;;;;;;5044622;28;20191;-76
2022/10/10 04:19:17;;;;;;;7.22;5.15;;;7.60;99.90;;;;;;5044496;28;20033;-76
2022/10/10 04:21:43;;;;;;;6.07;5.47;;;7.70;99.90;;;;;;5026026;28;20613;-76
2022/10/10 04:24:09;;;;;;;6.40;4.68;;;7.70;99.90;;;;;;5042443;28;20045;-76
2022/10/10 04:26:34;;;;;;;4.35;3.45;;;7.70;99.90;;;;;;5023894;28;20060;-76
2022/10/10 04:29:00;;;;;;;6.40;5.18;;;7.60;99.90;;;;;;5024942;28;20052;-76
2022/10/10 04:31:26;;;;;;;6.53;3.60;;;7.60;99.90;;;;;;5030941;28;20043;-76
2022/10/10 04:33:51;;;;;;;5.63;4.35;;;7.70;99.90;;;;;;5043677;28;20045;-76
2022/10/10 04:36:17;;;;;;;4.78;3.92;;;7.70;99.90;;;;;;5044318;28;20092;-76
2022/10/10 04:38:43;;;;;;;6.03;5.03;;;7.70;99.90;;;;;;5025023;28;20095;-76
2022/10/10 04:41:08;;;;;;;5.45;4.00;;;7.70;99.90;;;;;;5043809;28;20459;-76
2022/10/10 04:43:34;;;;;;;8.45;4.75;;;7.70;99.90;;;;;;5043846;28;20048;-75
2022/10/10 04:45:59;;;;;;;6.82;4.68;;;7.60;99.90;;;;;;5044224;28;20045;-76
2022/10/10 04:48:25;;;;;;;8.75;4.28;;;7.60;99.90;;;;;;5044309;28;20049;-76
2022/10/10 04:50:56;;;;;;;4.88;4.05;;;7.60;99.90;;;;;;5026111;28;20587;-76
2022/10/10 04:53:22;;;;;;;6.80;4.53;;;7.60;99.90;;;;;;5042974;28;20545;-76
2022/10/10 04:55:48;;;;;;;5.55;4.05;;;7.60;99.90;;;;;;5031763;28;20455;-76
2022/10/10 04:58:15;;;;;;;5.28;3.60;;;7.50;99.90;;;;;;5024003;28;20157;-77
2022/10/10 05:00:41;;;;;;;4.80;4.38;;;7.50;99.90;;;;;;5023594;28;20045;-76
2022/10/10 05:03:08;;;;;;;6.13;3.83;;;7.50;99.90;;;;;;5031690;28;20033;-76
2022/10/10 05:05:34;;;;;;;7.05;3.58;;;7.50;99.90;;;;;;5017848;28;20411;-76
2022/10/10 05:07:59;;;;;;;5.53;4.07;;;7.50;99.90;;;;;;5023521;28;20037;-77
2022/10/10 05:10:25;;;;;;;5.30;4.40;;;7.50;99.90;;;;;;5003399;28;20454;-77
2022/10/10 05:12:51;;;;;;;4.90;3.78;;;7.50;99.90;;;;;;5033287;28;20088;-77
2022/10/10 05:15:18;;;;;;;5.93;3.85;;;7.60;99.90;;;;;;5043311;28;20667;-79
2022/10/10 05:17:44;;;;;;;7.07;4.85;;;7.60;99.90;;;;;;5023187;28;20041;-78
2022/10/10 05:20:09;;;;;;;6.25;4.10;;;7.60;99.90;;;;;;5025032;28;20474;-78
2022/10/10 05:22:35;;;;;;;6.30;4.03;;;7.60;99.90;;;;;;5032168;28;20132;-78
2022/10/10 05:25:01;;;;;;;7.18;5.13;;;7.60;99.90;;;;;;5023960;28;20042;-78
2022/10/10 05:27:27;;;;;;;5.63;4.22;;;7.60;99.90;;;;;;5020976;28;20129;-78
2022/10/10 05:29:54;;;;;;;5.57;4.55;;;7.60;99.90;;;;;;5020446;28;20124;-78
2022/10/10 05:32:20;;;;;;;3.67;3.38;;;7.60;99.90;;;;;;5022770;28;20081;-78
2022/10/10 05:34:46;;;;;;;5.63;4.20;;;7.60;99.90;;;;;;5005391;28;20503;-78
2022/10/10 05:37:12;;;;;;;7.38;4.32;;;7.60;99.90;;;;;;5005247;28;20064;-78
2022/10/10 05:39:37;;;;;;;4.70;4.00;;;7.60;99.90;;;;;;5022009;28;20121;-79
2022/10/10 05:42:03;;;;;;;7.13;4.43;;;7.60;99.90;;;;;;5026029;28;20049;-78
2022/10/10 05:44:29;;;;;;;5.15;4.65;;;7.60;99.90;;;;;;5026380;28;20447;-78
2022/10/10 05:46:55;;;;;;;6.05;5.28;;;7.60;99.90;;;;;;5009061;28;20049;-79
2022/10/10 05:49:20;;;;;;;6.32;4.65;;;7.60;99.90;;;;;;5026546;28;20041;-78
2022/10/10 05:51:46;;;;;;;5.60;4.18;;;7.60;99.90;;;;;;5027180;28;20038;-79
2022/10/10 05:54:11;;;;;;;6.38;4.75;;;7.60;99.90;;;;;;5024717;28;20484;-78
2022/10/10 05:56:37;;;;;;;7.78;4.22;;;7.60;99.90;;;;;;5008556;28;20058;-79
2022/10/10 05:59:03;;;;;;;4.80;3.85;;;7.60;99.90;;;;;;5025708;28;20042;-79
2022/10/10 06:01:29;;;;;;;3.92;3.53;;;7.60;99.90;;;;;;5027323;28;20602;-78
2022/10/10 06:03:54;;;;;;;7.63;4.72;;;7.60;99.90;;;;;;5026981;28;20120;-81
2022/10/10 06:06:21;;;;;;;6.50;4.07;;;7.60;99.90;;;;;;5026636;28;20396;-80
2022/10/10 06:08:47;;;;;;;6.18;5.65;;;7.60;99.90;;;;;;5008196;28;20128;-81
2022/10/10 06:11:14;;;;;;;7.13;5.07;;;7.60;99.90;;;;;;5008857;28;20124;-81
2022/10/10 06:13:40;;;;;;;7.10;4.68;;;7.60;99.90;;;;;;5026588;28;20486;-80
2022/10/10 06:16:06;;;;;;;7.65;5.20;;;7.60;99.90;;;;;;5025745;28;20060;-81
2022/10/10 06:18:31;;;;;;;5.82;4.40;;;7.70;99.90;;;;;;5025751;28;20068;-80
2022/10/10 06:21:02;;;;;;;7.10;4.35;;;7.70;99.90;;;;;;5026624;28;20034;-82
2022/10/10 06:23:27;;;;;;;4.25;3.85;;;7.70;99.90;;;;;;5007672;28;20366;-81
2022/10/10 06:25:53;;;;;;;6.53;4.22;;;7.70;99.90;;;;;;5007929;28;20057;-79
2022/10/10 06:28:19;;;;;;;7.88;4.60;;;7.70;99.90;;;;;;5026156;28;20059;-81
2022/10/10 06:30:47;;;;;;;6.55;4.32;;;7.70;99.90;;;;;;4991410;28;20136;-82
2022/10/10 06:33:14;;;;;;;7.53;3.75;;;7.70;99.90;;;;;;5041086;28;20052;-79
2022/10/10 06:35:43;;;;;;;9.68;4.18;;;7.70;99.90;;;;;;5025069;28;20049;-81
2022/10/10 06:38:10;;;;;;;12.48;5.30;;;7.70;99.90;;;;;;4994682;28;20045;-80
2022/10/10 06:40:36;;;;;;;6.30;4.82;;;7.80;99.90;;;;;;5014083;28;20053;-80
2022/10/10 06:43:03;;;;;;;7.00;4.15;;;7.80;99.90;;;;;;4997077;28;20400;-79
2022/10/10 06:45:29;;;;;;;6.07;4.78;;;7.80;99.90;;;;;;5016045;28;20052;-80
2022/10/10 06:47:55;;;;;;;6.43;4.72;;;7.80;99.90;;;;;;5014493;28;20037;-79
2022/10/10 06:50:20;;;;;;;13.55;3.85;;;7.90;99.90;;;;;;4999803;28;20052;-80
2022/10/10 06:52:46;;;;;;;5.32;4.13;;;7.80;99.90;;;;;;5017726;28;20284;-78
2022/10/10 06:55:11;;;;;;;6.32;5.72;;;7.90;99.90;;;;;;5006439;28;20056;-80
2022/10/10 06:57:37;;;;;;;6.55;4.25;;;7.90;99.90;;;;;;5005344;28;20056;-81
2022/10/10 07:00:04;;;;;;;11.38;3.58;;;8.00;99.90;;;;;;4988413;28;20054;-80
2022/10/10 07:02:30;;;;;;;6.65;5.07;;;8.00;99.90;;;;;;5005852;28;20038;-81
2022/10/10 07:04:55;;;;;;;6.30;5.30;;;8.00;99.90;;;;;;4987624;28;20046;-80
2022/10/10 07:07:21;;;;;;;7.88;4.97;;;8.00;99.90;;;;;;5007021;28;20116;-78
2022/10/10 07:09:47;;;;;;;7.20;4.10;;;8.10;99.90;;;;;;5006622;28;20053;-81
2022/10/10 07:12:12;;;;;;;4.97;3.78;;;8.10;99.90;;;;;;5025000;28;20537;-78
2022/10/10 07:14:38;;;;;;;8.77;5.43;;;8.10;99.90;;;;;;5007194;28;20628;-79
2022/10/10 07:17:03;;;;;;;5.55;5.00;;;8.20;99.90;;;;;;5008009;28;20045;-79
2022/10/10 07:19:29;;;;;;;6.72;5.40;;;8.30;99.90;;;;;;5008555;28;20055;-78
2022/10/10 07:21:54;;;;;;;7.15;4.30;;;8.30;99.90;;;;;;5025034;28;20067;-79
2022/10/10 07:24:20;;;;;;;10.02;5.47;;;8.40;99.90;;;;;;5024705;28;20099;-79
2022/10/10 07:26:45;;;;;;;5.88;5.38;;;8.50;99.90;;;;;;4997092;28;20034;-78
2022/10/10 07:29:11;;;;;;;5.47;4.68;;;8.60;99.90;;;;;;5015474;28;20026;-79
2022/10/10 07:31:37;;;;;;;8.00;6.22;;;8.70;99.90;;;;;;5024303;28;20088;-79
2022/10/10 07:34:04;;;;;;;8.18;5.60;;;8.80;99.90;;;;;;5020019;28;20128;-79
2022/10/10 07:36:30;;;;;;;8.95;6.05;;;8.90;99.90;;;;;;5004522;28;20052;-81
2022/10/10 07:38:55;;;;;;;7.20;5.50;;;9.00;99.90;;;;;;5019641;28;20472;-79
2022/10/10 07:41:21;;;;;;;9.43;5.95;;;9.10;99.90;;;;;;5020157;28;20115;-77
2022/10/10 07:43:47;;;;;;;9.93;6.95;;;9.30;99.90;;;;;;5019092;28;20125;-80
2022/10/10 07:46:15;;;;;;;8.38;5.75;;;9.40;99.90;;;;;;5006269;28;20096;-79
2022/10/10 07:48:40;;;;;;;12.32;6.15;;;9.50;99.90;;;;;;5021171;28;20042;-79
2022/10/10 07:51:06;;;;;;;11.20;7.32;;;9.50;99.90;;;;;;5024304;28;20041;-79
2022/10/10 07:53:32;;;;;;;7.90;5.15;;;9.60;99.90;;;;;;5023750;28;20076;-78
2022/10/10 07:55:57;;;;;;;10.38;7.10;;;9.70;99.90;;;;;;5024402;28;20484;-79
2022/10/10 07:58:23;;;;;;;8.02;5.68;;;9.70;99.90;;;;;;5024481;28;20041;-77
2022/10/10 08:00:48;;;;;;;9.05;6.63;;;9.70;99.90;;;;;;5024196;28;20029;-78
2022/10/10 08:03:14;;;;;;;9.77;6.70;;;9.80;99.90;;;;;;5023037;28;20111;-79
2022/10/10 08:05:42;;;;;;;11.13;6.82;;;9.80;99.90;;;;;;5022920;28;20403;-80
2022/10/10 08:08:09;;;;;;;11.00;7.30;;;9.80;99.90;;;;;;4995282;28;20058;-81
2022/10/10 08:10:35;;;;;;;15.50;7.60;;;9.90;99.90;;;;;;5002628;28;20651;-81
2022/10/10 08:13:03;;;;;;;10.98;7.20;;;9.90;99.90;;;;;;5012009;28;20040;-87
2022/10/10 08:15:30;;;;;;;9.77;7.03;;;10.00;99.90;;;;;;5023450;28;20049;-85
2022/10/10 08:17:55;;;;;;;7.95;6.22;;;9.90;99.90;;;;;;5007652;28;20209;-84
2022/10/10 08:20:21;;;;;;;7.63;5.90;;;10.00;99.90;;;;;;5020102;28;20077;-84
2022/10/10 08:22:47;;;;;;;6.78;5.45;;;10.00;99.90;;;;;;5006434;28;20049;-86
2022/10/10 08:25:12;;;;;;;12.82;7.20;;;10.10;99.90;;;;;;5005767;28;20392;-84
2022/10/10 08:27:38;;;;;;;7.10;6.07;;;10.10;99.90;;;;;;5024652;28;20042;-85
2022/10/10 08:30:04;;;;;;;8.10;7.15;;;10.10;99.90;;;;;;5024851;28;20140;-85
2022/10/10 08:32:30;;;;;;;11.43;7.07;;;10.20;99.90;;;;;;5006142;28;20053;-85
2022/10/10 08:34:55;;;;;;;14.00;7.20;;;10.20;99.90;;;;;;4987360;28;20229;-85
2022/10/10 08:37:21;;;;;;;8.15;6.95;;;10.30;99.90;;;;;;4987741;28;20053;-85
2022/10/10 08:39:46;;;;;;;12.88;8.00;;;10.30;99.90;;;;;;5003129;28;20488;-86
2022/10/10 08:42:21;;;;;;;13.55;8.25;;;10.30;99.90;;;;;;5024511;28;20048;-81
2022/10/10 08:44:54;;;;;;;9.00;5.90;;;10.30;99.90;;;;;;5023520;28;20542;-85
2022/10/10 08:47:26;;;;;;;9.10;7.85;;;10.40;99.90;;;;;;5006670;28;20053;-85
2022/10/10 08:50:01;;;;;;;13.07;8.38;;;10.40;99.90;;;;;;5006593;28;20049;-84
2022/10/10 08:52:47;;;;;;;11.75;7.68;;;10.50;99.90;;;;;;5025028;28;20042;-85
2022/10/10 08:55:22;;;;;;;11.63;9.07;;;10.60;99.90;;;;;;5024618;28;20498;-86
2022/10/10 08:58:08;;;;;;;12.65;8.93;;;10.70;99.90;;;;;;5024704;28;20077;-85
2022/10/10 09:00:38;;;;;;;9.48;6.82;;;10.70;99.90;;;;;;5007115;28;20053;-87
2022/10/10 09:03:17;;;;;;;20.10;9.82;;;10.80;99.90;;;;;;5007028;28;20103;-82
2022/10/10 09:06:01;;;;;;;13.77;10.15;;;10.80;99.90;;;;;;5007543;28;20045;-83
2022/10/10 09:08:45;;;;;;;15.90;8.90;;;10.90;99.90;;;;;;5024252;28;20055;-87
2022/10/10 09:11:39;;;;;;;11.07;7.38;;;11.00;99.90;;;;;;4986728;28;20515;-84
2022/10/10 09:14:31;;;;;;;14.98;8.25;;;11.00;99.90;;;;;;5004626;28;20045;-85
2022/10/10 09:17:16;;;;;;;;;;;11.10;99.90;;;;;;5006893;28;20400;-84
2022/10/10 09:19:57;;;;;;;11.93;9.18;;;11.10;99.90;;;;;;5006146;28;20000;-85
2022/10/10 09:22:27;;;;;;;10.48;7.97;;;11.10;99.90;;;;;;5005843;28;20456;-86
2022/10/10 09:25:01;;;;;;;8.40;6.60;;;11.20;99.90;;;;;;4993449;28;20056;-87
2022/10/10 09:27:32;;;;;;;9.32;8.20;;;11.20;99.90;;;;;;5007487;28;20576;-88
2022/10/10 09:30:18;;;;;;;10.63;7.25;;;11.30;99.90;;;;;;5007057;28;20081;-88
2022/10/10 09:33:16;;;;;;;11.43;8.05;;;11.30;99.90;;;;;;5006381;28;20573;-88
2022/10/10 09:35:43;;;;;;;12.52;7.65;;;11.40;99.90;;;;;;5004897;28;20065;-86
2022/10/10 09:38:32;;;;;;;12.35;8.07;;;11.50;99.90;;;;;;5023305;28;20076;-83
2022/10/10 09:41:19;;;;;;;12.90;9.05;;;11.50;99.90;;;;;;5015161;28;20108;-89
2022/10/10 09:43:46;;;;;;;10.77;7.45;;;11.60;99.90;;;;;;5018082;28;20488;-88
2022/10/10 09:46:12;;;;;;;10.93;7.82;;;11.70;99.90;;;;;;5006915;28;20085;-90
2022/10/10 09:48:42;;;;;;;13.20;8.60;;;11.80;99.90;;;;;;5006788;28;20073;-84
2022/10/10 09:51:13;;;;;;;14.38;9.40;;;11.80;99.90;;;;;;5016096;28;20048;-85
2022/10/10 09:53:39;;;;;;;16.75;8.98;;;11.90;99.90;;;;;;4985866;28;20038;-89
2022/10/10 09:56:13;;;;;;;12.80;7.72;;;12.00;99.90;;;;;;5021767;28;20049;-88
2022/10/10 09:58:41;;;;;;;13.52;6.97;;;12.10;99.90;;;;;;5005867;28;20103;-90
2022/10/10 10:01:30;;;;;;;15.88;8.45;;;12.20;99.90;;;;;;4996714;28;20101;-86
2022/10/10 10:04:08;;;;;;;9.23;7.03;;;12.40;99.90;;;;;;4999819;28;20056;-88
2022/10/10 10:06:35;;;;;;;11.80;7.97;;;12.40;99.90;;;;;;5017936;28;20049;-87
2022/10/10 10:09:03;;;;;;;10.05;6.97;;;12.40;99.90;;;;;;4995233;28;20117;-85
2022/10/10 10:11:35;;;;;;;11.07;8.25;;;12.50;99.90;;;;;;5017707;28;20057;-84
2022/10/10 10:14:02;;;;;;;13.15;8.30;;;12.60;99.90;;;;;;4995480;28;20108;-86
2022/10/10 10:16:31;;;;;;;11.25;8.48;;;12.60;99.90;;;;;;4998304;28;20484;-84
2022/10/10 10:18:57;;;;;;;14.90;8.38;;;12.70;99.90;;;;;;5020128;28;20040;-84
2022/10/10 10:21:23;;;;;;;9.55;7.07;;;12.70;99.90;;;;;;5003638;28;20061;-86
2022/10/10 10:24:20;;;;;;;14.15;8.98;;;12.80;99.90;;;;;;4983543;28;20121;-88
2022/10/10 10:26:47;;;;;;;10.32;7.97;;;12.90;99.90;;;;;;5007297;28;20056;-87
2022/10/10 10:29:29;;;;;;;7.28;6.10;;;12.80;99.90;;;;;;5011796;28;20041;-85
2022/10/10 10:32:32;;;;;;;7.28;6.10;;;12.90;99.90;;;;;;5011102;28;20068;-85
2022/10/10 10:35:07;;;;;;;;;;;12.90;99.90;;;;;;4990812;28;20046;-86
2022/10/10 10:37:35;;;;;;;8.55;7.15;;;12.90;99.90;;;;;;5021841;28;19932;-84
2022/10/10 10:40:26;;;;;;;10.00;8.40;;;12.90;99.90;;;;;;5015616;28;20554;-81
2022/10/10 10:43:20;;;;;;;10.05;6.55;;;13.00;99.90;;;;;;4958372;28;20061;-87
2022/10/10 10:46:07;;;;;;;13.65;7.88;;;13.00;99.90;;;;;;5009816;28;20053;-87
2022/10/10 10:48:50;;;;;;;12.30;7.43;;;13.00;99.90;;;;;;5027031;28;20049;-83
2022/10/10 10:51:31;;;;;;;10.52;8.05;;;13.10;99.90;;;;;;4993303;28;20132;-83
2022/10/10 10:54:29;;;;;;;9.98;7.90;;;13.10;99.90;;;;;;5027361;28;20506;-85
2022/10/10 10:57:09;;;;;;;8.95;7.22;;;13.10;99.90;;;;;;4993122;28;20557;-89
2022/10/10 10:59:59;;;;;;;10.52;7.07;;;13.10;99.90;;;;;;5008788;28;20042;-84
2022/10/10 11:02:39;;;;;;;7.90;6.55;;;13.10;99.90;;;;;;5026964;28;20037;-84
2022/10/10 11:05:38;;;;;;;12.55;8.07;;;13.10;99.90;;;;;;5009417;28;20061;-93
2022/10/10 11:08:34;;;;;;;11.60;7.88;;;13.10;99.90;;;;;;5026761;28;20037;-91
2022/10/10 11:11:17;;;;;;;9.18;7.80;;;13.10;99.90;;;;;;5027699;28;20137;-83
2022/10/10 11:13:54;;;;;;;16.30;8.63;;;13.10;99.90;;;;;;4993267;28;20057;-85
2022/10/10 11:16:29;;;;;;;11.15;7.22;;;13.10;99.90;;;;;;5009994;28;20057;-87
2022/10/10 11:19:22;;;;;;;17.08;7.00;;;13.10;99.90;;;;;;5027193;28;20125;-92
2022/10/10 11:22:16;;;;;;;9.32;6.97;;;13.10;99.90;;;;;;5009971;28;20057;-87
2022/10/10 11:24:44;;;;;;;11.77;7.47;;;13.10;99.90;;;;;;5020051;28;20093;-89
2022/10/10 11:28:02;;;;;;;13.13;7.90;;;13.20;99.90;;;;;;4991808;28;20050;-88
2022/10/10 11:30:33;;;;;;;10.05;6.55;;;13.20;99.90;;;;;;4984072;28;20060;-79
2022/10/10 11:33:17;;;;;;;11.40;8.60;;;13.20;99.90;;;;;;5026089;28;20041;-81
2022/10/10 11:35:49;;;;;;;11.50;7.35;;;13.30;99.90;;;;;;5025393;28;20041;-79
2022/10/10 11:38:45;;;;;;;13.50;7.13;;;13.20;99.90;;;;;;5024092;28;20042;-83
2022/10/10 11:41:25;;;;;;;15.65;8.43;;;13.20;99.90;;;;;;5000592;28;20091;-79
2022/10/10 11:44:17;;;;;;;10.50;7.63;;;13.20;99.90;;;;;;5031480;28;20459;-85
2022/10/10 11:46:50;;;;;;;14.93;8.20;;;13.20;99.90;;;;;;5023052;28;20135;-85
2022/10/10 11:49:56;;;;;;;13.13;7.60;;;13.30;99.90;;;;;;5011875;28;20037;-83
2022/10/10 11:52:33;;;;;;;20.98;9.55;;;13.30;99.90;;;;;;5010515;28;20675;-82
2022/10/10 11:55:21;;;;;;;11.90;7.75;;;13.20;99.90;;;;;;5039389;28;20045;-83
2022/10/10 11:57:53;;;;;;;10.60;7.03;;;13.20;99.90;;;;;;5027086;28;20041;-84
2022/10/10 12:00:19;;;;;;;14.48;9.00;;;13.20;99.90;;;;;;5033861;28;20042;-81
2022/10/10 12:02:46;;;;;;;15.15;9.70;;;13.20;99.90;;;;;;5026886;28;20091;-83
2022/10/10 12:05:22;;;;;;;12.07;8.60;;;13.20;99.90;;;;;;5014926;28;20033;-81
2022/10/10 12:07:56;;;;;;;10.75;7.65;;;13.20;99.90;;;;;;5026652;28;20068;-83
2022/10/10 12:10:22;;;;;;;16.27;9.52;;;13.20;99.90;;;;;;5009150;28;20499;-83
2022/10/10 12:12:51;;;;;;;16.02;8.35;;;13.10;99.90;;;;;;5027536;28;20060;-84
2022/10/10 12:15:31;;;;;;;13.15;9.88;;;13.20;99.90;;;;;;5023172;28;20504;-83
2022/10/10 12:17:57;;;;;;;10.57;8.35;;;13.20;99.90;;;;;;5006516;28;20084;-82
2022/10/10 12:20:25;;;;;;;14.10;9.75;;;13.20;99.90;;;;;;5025520;28;20042;-84
2022/10/10 12:23:13;;;;;;;13.25;8.38;;;13.20;99.90;;;;;;5024051;28;20631;-84
2022/10/10 12:25:41;;;;;;;16.95;9.43;;;13.10;99.90;;;;;;5012425;28;20060;-83
2022/10/10 12:28:12;;;;;;;9.95;7.38;;;13.20;99.90;;;;;;5024095;28;20522;-81
2022/10/10 12:30:53;;;;;;;7.72;5.97;;;13.20;99.90;;;;;;5024724;28;20064;-80
2022/10/10 12:33:32;;;;;;;6.60;4.35;;;13.20;99.90;;;;;;5024688;28;20128;-82
2022/10/10 12:36:18;;;;;;;4.57;2.47;;;13.20;99.90;;;;;;5005832;28;20050;-87
2022/10/10 12:39:06;;;;;;;4.22;2.05;;;13.20;99.90;;;;;;5011405;28;20407;-80
2022/10/10 12:41:41;;;;;;;4.93;2.13;;;13.20;99.90;;;;;;5006627;28;20045;-88
2022/10/10 12:44:22;;;;;;;8.98;2.90;;;13.10;99.90;;;;;;5006452;28;20045;-85
2022/10/10 12:47:13;;;;;;;6.93;2.70;;;13.00;99.90;;;;;;5006388;28;20049;-83
2022/10/10 12:49:47;;;;;;;1.70;1.15;;;12.90;99.90;;;;;;5005429;28;20053;-88
2022/10/10 12:52:22;;;;;;;10.98;2.47;;;12.80;99.90;;;;;;5006286;28;20049;-80
2022/10/10 12:54:50;;;;;;;9.20;2.13;;;12.80;99.90;;;;;;5024115;28;20447;-87
2022/10/10 12:57:45;;;;;;;1.55;1.25;;;12.70;99.90;;;;;;5024490;28;20257;-87
2022/10/10 13:00:18;;;;;;;10.18;1.77;;;12.60;99.90;;;;;;4992487;28;20049;-85
2022/10/10 13:02:46;;;;;;;4.18;2.42;;;12.60;99.90;;;;;;5023362;28;20102;-88
2022/10/10 13:05:17;;;;;;;5.03;1.85;;;12.50;99.90;;;;;;5024163;28;20482;-82
2022/10/10 13:07:46;;;;;;;3.75;1.20;;;12.40;99.90;;;;;;5005101;28;20050;-90
2022/10/10 13:10:24;;;;;;;4.97;1.83;;;12.40;99.90;;;;;;5024281;28;20045;-86
2022/10/10 13:13:15;;;;;;;5.20;1.77;;;12.40;99.90;;;;;;5021606;28;20037;-81